createdAt,value
2019-02-02T00:01:50.716Z,12.87
2019-02-02T00:04:31.685Z,12.10
2019-02-02T00:07:13.067Z,12.53
2019-02-02T00:09:53.852Z,12.70
2019-02-02T00:12:34.609Z,11.53
2019-02-02T00:15:15.482Z,12.33
2019-02-02T00:17:56.798Z,11.80
2019-02-02T00:20:37.822Z,13.00
2019-02-02T00:23:18.552Z,12.40
2019-02-02T00:25:59.577Z,13.77
2019-02-02T00:28:40.151Z,12.60
2019-02-02T00:31:21.595Z,13.17
2019-02-02T00:34:02.568Z,13.23
2019-02-02T00:36:43.601Z,13.17
2019-02-02T00:39:24.229Z,14.03
2019-02-02T00:42:05.032Z,13.07
2019-02-02T00:44:46.011Z,12.17
2019-02-02T00:47:26.935Z,12.70
2019-02-02T00:50:07.976Z,12.90
2019-02-02T00:52:49.109Z,13.67
2019-02-02T00:55:29.599Z,14.07
2019-02-02T00:58:10.535Z,14.63
2019-02-02T01:00:51.504Z,13.13
2019-02-02T01:03:32.837Z,14.47
2019-02-02T01:06:14.171Z,14.00
2019-02-02T01:08:54.985Z,13.13
2019-02-02T01:11:36.303Z,14.00
2019-02-02T01:14:17.050Z,14.77
2019-02-02T01:16:57.934Z,14.27
2019-02-02T01:19:38.638Z,14.50
2019-02-02T01:22:19.389Z,14.57
2019-02-02T01:25:00.667Z,14.33
2019-02-02T01:27:41.476Z,14.30
2019-02-02T01:30:22.792Z,14.17
2019-02-02T01:33:03.589Z,14.97
2019-02-02T01:35:44.827Z,14.17
2019-02-02T01:38:25.638Z,14.93
2019-02-02T01:41:06.496Z,14.83
2019-02-02T01:43:47.418Z,13.87
2019-02-02T01:46:28.234Z,14.00
2019-02-02T01:49:09.206Z,13.83
2019-02-02T01:51:50.178Z,14.53
2019-02-02T01:54:30.637Z,15.47
2019-02-02T01:57:11.394Z,14.70
2019-02-02T01:59:52.274Z,14.70
2019-02-02T02:02:33.030Z,15.03
2019-02-02T02:05:13.798Z,13.33
2019-02-02T02:07:54.686Z,14.80
2019-02-02T02:10:35.197Z,14.27
2019-02-02T02:13:16.168Z,16.37
2019-02-02T02:15:57.016Z,15.90
2019-02-02T02:18:37.738Z,16.13
2019-02-02T02:21:18.474Z,15.27
2019-02-02T02:23:59.191Z,16.07
2019-02-02T02:26:40.164Z,15.53
2019-02-02T02:29:20.939Z,15.93
2019-02-02T02:34:32.155Z,14.77
2019-02-02T02:37:01.602Z,16.77
2019-02-02T02:39:31.085Z,15.53
2019-02-02T02:42:19.321Z,17.17
2019-02-02T02:45:07.769Z,16.53
2019-02-02T02:47:48.512Z,16.13
2019-02-02T02:50:29.237Z,15.83
2019-02-02T02:53:09.965Z,15.90
2019-02-02T02:55:50.815Z,16.17
2019-02-02T02:58:41.145Z,15.00
2019-02-02T03:01:14.713Z,15.47
2019-02-02T03:03:55.794Z,16.07
2019-02-02T03:06:36.597Z,16.40
2019-02-02T03:09:17.408Z,15.17
2019-02-02T03:11:58.225Z,14.50
2019-02-02T03:14:39.083Z,15.00
2019-02-02T03:17:19.759Z,14.13
2019-02-02T03:20:00.279Z,14.87
2019-02-02T03:22:41.769Z,16.03
2019-02-02T03:25:22.448Z,16.20
2019-02-02T03:31:08.078Z,15.87
2019-02-02T03:33:49.501Z,17.80
2019-02-02T03:36:30.695Z,16.57
2019-02-02T03:39:12.064Z,16.37
2019-02-02T03:41:52.752Z,16.40
2019-02-02T03:44:33.874Z,17.03
2019-02-02T03:47:14.802Z,15.93
2019-02-02T03:49:55.684Z,16.37
2019-02-02T03:52:36.422Z,15.50
2019-02-02T03:55:15.930Z,15.73
2019-02-02T03:57:56.850Z,16.50
2019-02-02T04:00:37.873Z,14.87
2019-02-02T04:03:18.711Z,14.57
2019-02-02T04:05:59.323Z,16.73
2019-02-02T04:08:40.083Z,15.37
2019-02-02T04:11:20.815Z,16.20
2019-02-02T04:14:02.186Z,15.40
2019-02-02T04:16:42.963Z,15.67
2019-02-02T04:19:23.624Z,15.67
2019-02-02T04:22:04.314Z,16.40
2019-02-02T04:24:45.126Z,15.27
2019-02-02T04:27:25.787Z,15.40
2019-02-02T04:30:06.579Z,13.93
2019-02-02T04:32:47.195Z,13.93
2019-02-02T04:35:27.983Z,15.23
2019-02-02T04:38:08.707Z,15.83
2019-02-02T04:40:48.008Z,16.37
2019-02-02T04:43:36.223Z,16.33
2019-02-02T04:46:15.579Z,15.67
2019-02-02T04:49:04.041Z,16.20
2019-02-02T04:51:44.901Z,16.57
2019-02-02T04:54:25.833Z,15.40
2019-02-02T04:57:06.824Z,16.00
2019-02-02T04:59:47.291Z,16.50
2019-02-02T05:02:30.376Z,14.90
2019-02-02T05:05:11.169Z,15.90
2019-02-02T05:07:51.791Z,15.37
2019-02-02T05:10:32.531Z,16.33
2019-02-02T05:13:13.405Z,15.20
2019-02-02T05:15:54.181Z,15.33
2019-02-02T05:18:35.173Z,15.97
2019-02-02T05:21:16.116Z,14.93
2019-02-02T05:23:57.014Z,15.00
2019-02-02T05:26:37.849Z,16.20
2019-02-02T05:29:18.302Z,15.77
2019-02-02T05:31:59.082Z,16.07
2019-02-02T05:34:39.889Z,16.47
2019-02-02T05:37:20.725Z,16.37
2019-02-02T05:40:01.509Z,15.27
2019-02-02T05:42:42.467Z,16.27
2019-02-02T05:45:23.796Z,16.17
2019-02-02T05:48:04.746Z,16.00
2019-02-02T05:50:45.611Z,16.00
2019-02-02T05:53:26.436Z,14.80
2019-02-02T05:56:07.671Z,14.40
2019-02-02T05:58:49.168Z,16.60
2019-02-02T06:01:30.229Z,14.77
2019-02-02T06:04:11.623Z,15.90
2019-02-02T06:06:52.288Z,15.33
2019-02-02T06:09:33.638Z,16.77
2019-02-02T06:12:14.875Z,16.47
2019-02-02T06:14:55.761Z,18.67
2019-02-02T06:17:36.928Z,16.70
2019-02-02T06:20:17.731Z,17.50
2019-02-02T06:22:58.540Z,16.73
2019-02-02T06:25:39.098Z,16.30
2019-02-02T06:28:19.789Z,15.53
2019-02-02T06:31:00.744Z,17.07
2019-02-02T06:33:41.793Z,16.97
2019-02-02T06:36:21.181Z,16.93
2019-02-02T06:39:02.474Z,17.60
2019-02-02T06:41:43.452Z,16.70
2019-02-02T06:44:24.403Z,17.50
2019-02-02T06:47:05.208Z,16.77
2019-02-02T06:49:45.847Z,17.57
2019-02-02T06:52:26.721Z,17.37
2019-02-02T06:55:07.570Z,18.67
2019-02-02T06:57:48.655Z,18.13
2019-02-02T07:00:31.019Z,18.37
2019-02-02T07:03:13.447Z,18.73
2019-02-02T07:05:54.517Z,18.87
2019-02-02T07:11:18.904Z,16.97
2019-02-02T07:14:00.355Z,19.03
2019-02-02T07:16:41.757Z,18.40
2019-02-02T07:19:23.181Z,18.47
2019-02-02T07:22:03.940Z,19.20
2019-02-02T07:24:43.540Z,20.47
2019-02-02T07:27:24.621Z,18.50
2019-02-02T07:30:06.047Z,19.77
2019-02-02T07:32:46.661Z,19.97
2019-02-02T07:35:27.211Z,21.37
2019-02-02T07:38:07.877Z,21.07
2019-02-02T07:40:48.692Z,19.30
2019-02-02T07:43:29.540Z,20.73
2019-02-02T07:46:15.049Z,20.30
2019-02-02T07:48:53.245Z,19.47
2019-02-02T07:51:33.943Z,21.70
2019-02-02T07:54:14.704Z,21.20
2019-02-02T07:56:55.407Z,20.67
2019-02-02T07:59:36.575Z,21.13
2019-02-02T08:02:17.426Z,19.80
2019-02-02T08:04:58.157Z,21.97
2019-02-02T08:07:39.047Z,21.50
2019-02-02T08:10:19.793Z,22.00
2019-02-02T08:13:00.564Z,22.23
2019-02-02T08:15:41.636Z,22.90
2019-02-02T08:18:22.857Z,20.70
2019-02-02T08:21:04.226Z,20.97
2019-02-02T08:23:33.656Z,20.63
2019-02-02T08:26:21.382Z,21.33
2019-02-02T08:29:09.728Z,21.47
2019-02-02T08:31:50.944Z,23.20
2019-02-02T08:34:31.436Z,21.70
2019-02-02T08:40:17.704Z,22.00
2019-02-02T08:42:58.431Z,21.73
2019-02-02T08:45:39.270Z,22.93
2019-02-02T08:48:20.312Z,21.70
2019-02-02T08:51:01.812Z,22.37
2019-02-02T08:53:42.839Z,22.83
2019-02-02T08:56:23.687Z,23.20
2019-02-02T08:59:04.351Z,22.27
2019-02-02T09:01:48.052Z,23.07
2019-02-02T09:04:28.264Z,22.50
2019-02-02T09:07:09.121Z,22.77
2019-02-02T09:09:48.507Z,20.63
2019-02-02T09:12:29.908Z,23.23
2019-02-02T09:15:10.614Z,24.30
2019-02-02T09:17:51.633Z,22.50
2019-02-02T09:20:32.454Z,20.87
2019-02-02T09:23:13.842Z,20.60
2019-02-02T09:25:55.281Z,22.83
2019-02-02T09:28:35.997Z,22.10
2019-02-02T09:31:17.283Z,23.77
2019-02-02T09:36:56.757Z,24.20
2019-02-02T09:39:38.071Z,22.27
2019-02-02T09:42:18.801Z,21.37
2019-02-02T09:44:59.472Z,22.73
2019-02-02T09:47:40.717Z,21.37
2019-02-02T09:50:21.235Z,23.20
2019-02-02T09:53:02.474Z,24.60
2019-02-02T09:55:43.863Z,21.30
2019-02-02T09:58:13.753Z,25.07
2019-02-02T10:00:55.499Z,24.03
2019-02-02T10:03:36.690Z,24.00
2019-02-02T10:06:17.484Z,23.40
2019-02-02T10:08:58.160Z,21.17
2019-02-02T10:11:41.588Z,24.90
2019-02-02T10:14:22.607Z,24.50
2019-02-02T10:17:03.867Z,22.13
2019-02-02T10:19:44.473Z,23.97
2019-02-02T10:22:25.686Z,22.93
2019-02-02T10:25:07.276Z,21.63
2019-02-02T10:27:48.576Z,22.93
2019-02-02T10:30:29.293Z,22.30
2019-02-02T10:33:10.358Z,19.37
2019-02-02T10:35:51.225Z,18.27
2019-02-02T10:38:32.388Z,22.90
2019-02-02T10:41:13.498Z,22.80
2019-02-02T10:43:53.976Z,24.17
2019-02-02T10:46:35.078Z,23.80
2019-02-02T10:49:16.370Z,22.30
2019-02-02T10:51:57.140Z,21.73
2019-02-02T10:54:37.946Z,22.83
2019-02-02T10:57:18.655Z,23.03
2019-02-02T10:59:59.922Z,22.27
2019-02-02T11:02:40.725Z,21.87
2019-02-02T11:05:22.002Z,21.50
2019-02-02T11:08:04.392Z,22.17
2019-02-02T11:10:43.752Z,17.90
2019-02-02T11:13:24.316Z,21.80
2019-02-02T11:18:35.991Z,22.70
2019-02-02T11:21:05.422Z,23.63
2019-02-02T11:23:53.823Z,22.23
2019-02-02T11:26:42.200Z,20.73
2019-02-02T11:29:23.773Z,19.43
2019-02-02T11:32:05.079Z,21.70
2019-02-02T11:34:46.352Z,20.90
2019-02-02T11:37:32.037Z,21.13
2019-02-02T11:40:16.434Z,20.47
2019-02-02T11:42:59.144Z,23.50
2019-02-02T11:45:41.351Z,21.67
2019-02-02T11:48:22.098Z,22.03
2019-02-02T11:51:06.411Z,22.07
2019-02-02T11:53:46.949Z,17.77
2019-02-02T11:56:27.918Z,18.77
2019-02-02T11:59:08.473Z,19.73
2019-02-02T12:01:49.368Z,19.57
2019-02-02T12:04:30.699Z,22.03
2019-02-02T12:07:12.055Z,20.17
2019-02-02T12:09:53.537Z,18.77
2019-02-02T12:12:34.603Z,21.23
2019-02-02T12:15:15.457Z,20.87
2019-02-02T12:17:56.400Z,20.33
2019-02-02T12:20:37.166Z,20.40
2019-02-02T12:23:18.423Z,19.53
2019-02-02T12:25:59.300Z,18.10
2019-02-02T12:28:40.203Z,18.37
2019-02-02T12:31:20.733Z,20.60
2019-02-02T12:34:01.706Z,20.50
2019-02-02T12:36:42.384Z,19.67
2019-02-02T12:39:23.438Z,19.87
2019-02-02T12:42:04.092Z,19.67
2019-02-02T12:44:45.091Z,19.00
2019-02-02T12:47:25.707Z,19.57
2019-02-02T12:50:06.196Z,17.47
2019-02-02T12:52:47.527Z,18.83
2019-02-02T12:55:28.169Z,18.30
2019-02-02T12:58:09.393Z,19.50
2019-02-02T13:00:50.048Z,19.20
2019-02-02T13:03:30.682Z,19.33
2019-02-02T13:06:11.362Z,19.37
2019-02-02T13:08:50.793Z,19.23
2019-02-02T13:11:31.740Z,19.57
2019-02-02T13:14:13.049Z,18.10
2019-02-02T13:16:54.242Z,19.13
2019-02-02T13:19:34.936Z,18.33
2019-02-02T13:22:14.431Z,17.33
2019-02-02T13:25:02.734Z,18.90
2019-02-02T13:27:43.953Z,17.73
2019-02-02T13:30:24.726Z,19.40
2019-02-02T13:33:05.321Z,17.13
2019-02-02T13:35:45.913Z,17.93
2019-02-02T13:38:26.556Z,18.77
2019-02-02T13:41:07.789Z,16.77
2019-02-02T13:43:48.817Z,17.07
2019-02-02T13:46:30.548Z,17.93
2019-02-02T13:49:11.255Z,15.30
2019-02-02T13:51:52.599Z,17.60
2019-02-02T13:54:34.029Z,15.37
2019-02-02T13:57:14.629Z,17.07
2019-02-02T13:59:55.757Z,17.17
2019-02-02T14:02:36.668Z,17.40
2019-02-02T14:05:17.584Z,17.47
2019-02-02T14:08:00.082Z,17.73
2019-02-02T14:10:40.871Z,17.70
2019-02-02T14:16:34.623Z,16.47
2019-02-02T14:19:15.074Z,17.47
2019-02-02T14:21:56.085Z,17.27
2019-02-02T14:24:37.038Z,17.23
2019-02-02T14:27:17.719Z,18.17
2019-02-02T14:29:58.625Z,17.23
2019-02-02T14:32:39.312Z,18.67
2019-02-02T14:35:20.107Z,17.67
2019-02-02T14:38:01.038Z,17.53
2019-02-02T14:40:41.793Z,17.37
2019-02-02T14:43:22.451Z,16.87
2019-02-02T14:46:03.568Z,16.60
2019-02-02T14:48:44.940Z,16.60
2019-02-02T14:51:14.378Z,17.10
2019-02-02T14:54:02.730Z,15.80
2019-02-02T14:56:50.941Z,18.40
2019-02-02T14:59:32.159Z,16.47
2019-02-02T15:02:12.694Z,16.87
2019-02-02T15:04:52.134Z,18.87
2019-02-02T15:07:40.566Z,18.13
2019-02-02T15:10:21.938Z,17.90
2019-02-02T15:13:02.669Z,18.27
2019-02-02T15:15:44.315Z,17.17
2019-02-02T15:21:18.351Z,18.67
2019-02-02T15:24:06.646Z,17.60
2019-02-02T15:26:47.314Z,18.00
2019-02-02T15:29:27.926Z,15.07
2019-02-02T15:32:08.530Z,17.73
2019-02-02T15:34:49.926Z,16.63
2019-02-02T15:37:31.068Z,19.27
2019-02-02T15:40:11.695Z,18.07
2019-02-02T15:42:53.267Z,19.47
2019-02-02T15:45:33.829Z,18.30
2019-02-02T15:48:15.248Z,19.20
2019-02-02T15:50:56.566Z,20.17
2019-02-02T15:53:38.014Z,18.37
2019-02-02T15:56:18.842Z,18.57
2019-02-02T15:58:59.412Z,17.97
2019-02-02T16:01:40.790Z,18.83
2019-02-02T16:04:22.246Z,19.00
2019-02-02T16:07:02.864Z,19.30
2019-02-02T16:09:44.375Z,21.63
2019-02-02T16:12:25.079Z,20.43
2019-02-02T16:15:05.293Z,22.40
2019-02-02T16:17:53.675Z,18.83
2019-02-02T16:20:34.333Z,16.80
2019-02-02T16:23:15.209Z,16.90
2019-02-02T16:25:56.768Z,19.13
2019-02-02T16:28:37.466Z,19.93
2019-02-02T16:31:17.967Z,18.80
2019-02-02T16:34:02.117Z,18.33
2019-02-02T16:36:41.733Z,18.43
2019-02-02T16:39:22.396Z,19.33
2019-02-02T16:42:03.651Z,18.00
2019-02-02T16:44:44.901Z,19.00
2019-02-02T16:47:24.281Z,19.50
2019-02-02T16:50:05.511Z,19.10
2019-02-02T16:52:46.197Z,17.03
2019-02-02T16:55:26.895Z,18.83
2019-02-02T16:58:07.754Z,18.30
2019-02-02T17:00:48.766Z,19.13
2019-02-02T17:03:29.672Z,18.17
2019-02-02T17:06:11.075Z,20.23
2019-02-02T17:08:51.648Z,18.63
2019-02-02T17:11:32.303Z,17.23
2019-02-02T17:14:13.694Z,19.40
2019-02-02T17:16:54.545Z,19.97
2019-02-02T17:19:35.188Z,20.20
2019-02-02T17:22:16.113Z,21.80
2019-02-02T17:24:57.015Z,21.97
2019-02-02T17:27:38.207Z,22.83
2019-02-02T17:30:18.962Z,21.43
2019-02-02T17:32:59.377Z,25.97
2019-02-02T17:35:47.683Z,24.17
2019-02-02T17:38:28.545Z,23.57
2019-02-02T17:41:09.315Z,25.77
2019-02-02T17:43:50.079Z,21.73
2019-02-02T17:46:31.074Z,23.23
2019-02-02T17:49:12.389Z,24.67
2019-02-02T17:51:53.698Z,24.77
2019-02-02T17:57:36.120Z,24.40
2019-02-02T18:00:18.423Z,20.80
2019-02-02T18:02:59.188Z,22.37
2019-02-02T18:05:40.463Z,21.07
2019-02-02T18:08:21.177Z,21.50
2019-02-02T18:11:02.117Z,21.50
2019-02-02T18:13:42.801Z,23.00
2019-02-02T18:16:23.366Z,23.03
2019-02-02T18:22:06.102Z,22.60
2019-02-02T18:24:46.925Z,22.73
2019-02-02T18:27:27.489Z,20.83
2019-02-02T18:30:08.263Z,23.03
2019-02-02T18:32:50.029Z,22.53
2019-02-02T18:35:31.103Z,21.97
2019-02-02T18:38:12.567Z,20.97
2019-02-02T18:40:54.073Z,21.57
2019-02-02T18:43:34.937Z,22.53
2019-02-02T18:46:15.932Z,23.73
2019-02-02T18:48:57.394Z,21.00
2019-02-02T18:51:38.591Z,21.00
2019-02-02T18:54:19.506Z,21.20
2019-02-02T18:57:00.763Z,24.57
2019-02-02T18:59:42.184Z,22.73
2019-02-02T19:02:23.542Z,21.50
2019-02-02T19:05:04.488Z,23.23
2019-02-02T19:07:45.728Z,21.67
2019-02-02T19:10:26.370Z,20.63
2019-02-02T19:13:07.259Z,21.00
2019-02-02T19:15:48.521Z,20.30
2019-02-02T19:18:29.794Z,20.73
2019-02-02T19:21:11.324Z,19.27
2019-02-02T19:29:13.211Z,20.17
2019-02-02T19:32:01.514Z,21.43
2019-02-02T19:34:42.040Z,19.23
2019-02-02T19:37:22.874Z,20.27
2019-02-02T19:40:04.006Z,21.40
2019-02-02T19:42:45.293Z,21.07
2019-02-02T19:45:26.192Z,23.00
2019-02-02T19:48:07.423Z,22.20
2019-02-02T19:50:48.375Z,20.70
2019-02-02T19:53:31.664Z,21.20
2019-02-02T19:56:11.882Z,20.80
2019-02-02T19:58:53.130Z,19.87
2019-02-02T20:04:32.156Z,20.83
2019-02-02T20:07:13.254Z,22.10
2019-02-02T20:09:54.164Z,20.97
2019-02-02T20:12:34.980Z,21.57
2019-02-02T20:15:15.902Z,20.10
2019-02-02T20:18:08.949Z,19.80
2019-02-02T20:20:39.594Z,20.33
2019-02-02T20:23:20.938Z,20.53
2019-02-02T20:26:02.178Z,21.80
2019-02-02T20:28:42.543Z,21.40
2019-02-02T20:31:23.407Z,20.87
2019-02-02T20:34:04.199Z,21.83
2019-02-02T20:36:45.033Z,20.97
2019-02-02T20:39:25.800Z,19.93
2019-02-02T20:42:07.090Z,21.40
2019-02-02T20:44:47.738Z,21.13
2019-02-02T20:47:28.565Z,20.87
2019-02-02T20:50:09.241Z,21.90
2019-02-02T20:52:50.090Z,22.70
2019-02-02T20:55:30.893Z,22.83
2019-02-02T20:58:11.671Z,23.50
2019-02-02T21:00:52.418Z,18.73
2019-02-02T21:03:33.289Z,23.67
2019-02-02T21:06:14.236Z,22.97
2019-02-02T21:08:54.921Z,20.73
2019-02-02T21:11:36.397Z,20.90
2019-02-02T21:14:17.384Z,21.10
2019-02-02T21:16:58.190Z,22.57
2019-02-02T21:19:39.435Z,21.80
2019-02-02T21:22:20.153Z,21.30
2019-02-02T21:25:01.620Z,21.10
2019-02-02T21:27:42.280Z,21.33
2019-02-02T21:30:23.640Z,21.07
2019-02-02T21:33:04.276Z,18.60
2019-02-02T21:35:45.250Z,20.47
2019-02-02T21:38:24.599Z,21.67
2019-02-02T21:41:05.156Z,21.50
2019-02-02T21:43:46.360Z,22.17
2019-02-02T21:46:27.850Z,22.00
2019-02-02T21:49:08.452Z,23.97
2019-02-02T21:51:49.530Z,22.57
2019-02-02T21:54:30.221Z,22.83
2019-02-02T21:57:11.198Z,22.13
2019-02-02T21:59:52.046Z,24.10
2019-02-02T22:02:32.942Z,22.33
2019-02-02T22:05:14.296Z,23.57
2019-02-02T22:07:55.082Z,23.73
2019-02-02T22:10:36.456Z,22.50
2019-02-02T22:13:17.342Z,22.73
2019-02-02T22:15:57.794Z,23.53
2019-02-02T22:18:39.098Z,23.27
2019-02-02T22:21:20.570Z,22.80
2019-02-02T22:24:04.591Z,25.20
2019-02-02T22:26:45.578Z,24.83
2019-02-02T22:29:26.612Z,24.30
2019-02-02T22:32:08.042Z,24.27
2019-02-02T22:34:49.060Z,23.60
2019-02-02T22:37:28.477Z,22.77
2019-02-02T22:40:09.069Z,22.70
2019-02-02T22:42:48.431Z,21.97
2019-02-02T22:45:29.143Z,22.20
2019-02-02T22:48:10.023Z,21.90
2019-02-02T22:50:49.463Z,23.40
2019-02-02T22:53:30.402Z,23.00
2019-02-02T22:56:11.745Z,27.83
2019-02-02T22:58:52.829Z,27.00
2019-02-02T23:01:33.762Z,30.63
2019-02-02T23:04:14.592Z,28.37
2019-02-02T23:06:55.642Z,27.73
2019-02-02T23:09:37.062Z,25.60
2019-02-02T23:12:17.991Z,26.07
2019-02-02T23:14:58.484Z,26.47
2019-02-02T23:17:39.961Z,26.80
2019-02-02T23:20:20.730Z,27.13
2019-02-02T23:23:01.392Z,24.10
2019-02-02T23:25:42.237Z,24.70
2019-02-02T23:28:23.203Z,26.50
2019-02-02T23:31:04.355Z,22.57
2019-02-02T23:33:45.739Z,25.10
2019-02-02T23:36:26.587Z,24.43
2019-02-02T23:39:07.305Z,24.53
2019-02-02T23:41:49.216Z,24.83
2019-02-02T23:44:30.771Z,26.60
2019-02-02T23:47:08.005Z,25.97
2019-02-02T23:49:47.464Z,26.00
2019-02-02T23:52:35.780Z,26.90
2019-02-02T23:55:05.871Z,27.23
2019-02-02T23:57:35.484Z,25.50
